Time;durP1;ratioP1;P1;durP2;ratioP2;P2;SDS_P1;SDS_P2;PMS_P1;PMS_P2;Temp;Humidity;BMP_temperature;BMP_pressure;BME280_temperature;BME280_humidity;BME280_pressure;Samples;Min_cycle;Max_cycle;Signal;HPM_P1;HPM_P2
2020/12/08 00:00:27;;;;;;;19.83;7.40;;;;;;;-2.38;76.11;101293.39;126800;1095;104443;-85
2020/12/08 00:03:00;;;;;;;18.23;6.60;;;;;;;-2.35;75.38;101287.66;126819;1096;104692;-85
2020/12/08 00:05:29;;;;;;;20.23;8.10;;;;;;;-2.31;75.74;101288.86;126802;1095;104503;-85
2020/12/08 00:07:58;;;;;;;16.03;5.87;;;;;;;-2.28;76.38;101281.45;126779;1095;104433;-89
2020/12/08 00:10:27;;;;;;;22.10;7.43;;;;;;;-2.30;75.23;101294.16;126775;1095;104994;-86
2020/12/08 00:12:56;;;;;;;19.43;7.70;;;;;;;-2.34;76.06;101292.02;126782;1094;104577;-88
2020/12/08 00:15:25;;;;;;;19.90;7.23;;;;;;;-2.33;76.15;101296.42;126858;1095;104438;-83
2020/12/08 00:17:54;;;;;;;20.87;8.07;;;;;;;-2.35;75.79;101297.94;126842;1095;104451;-87
2020/12/08 00:20:23;;;;;;;23.67;8.07;;;;;;;-2.35;75.31;101300.52;126772;1095;104618;-86
2020/12/08 00:22:52;;;;;;;22.13;7.30;;;;;;;-2.38;76.16;101283.11;126767;1094;104446;-87
2020/12/08 00:25:21;;;;;;;17.63;5.73;;;;;;;-2.38;76.31;101288.25;126801;1096;105271;-85
2020/12/08 00:27:50;;;;;;;21.75;7.20;;;;;;;-2.35;76.27;101290.23;126813;1095;103273;-84
2020/12/08 00:30:22;;;;;;;21.93;8.20;;;;;;;-2.33;75.36;101290.38;126787;1094;104496;-88
2020/12/08 00:32:51;;;;;;;18.40;5.77;;;;;;;-2.30;75.35;101295.83;126833;1095;104438;-84
2020/12/08 00:35:21;;;;;;;19.53;6.47;;;;;;;-2.30;75.86;101289.02;126852;1095;104519;-84
2020/12/08 00:37:50;;;;;;;19.53;7.10;;;;;;;-2.30;76.38;101289.02;126789;1095;104618;-83
2020/12/08 00:40:19;;;;;;;21.95;7.45;;;;;;;-2.32;75.41;101284.47;126786;1096;103413;-86
2020/12/08 00:42:48;;;;;;;26.90;8.03;;;;;;;-2.37;75.16;101284.01;126842;1094;104637;-87
2020/12/08 00:45:17;;;;;;;23.97;7.87;;;;;;;-2.34;76.54;101292.02;126780;1095;104692;-87
2020/12/08 00:47:48;;;;;;;25.50;7.77;;;;;;;-2.33;75.55;101285.24;126860;1095;104484;-85
2020/12/08 00:50:18;;;;;;;19.33;6.80;;;;;;;-2.34;76.49;101279.17;126777;1096;104628;-86
2020/12/08 00:52:47;;;;;;;23.57;7.70;;;;;;;-2.40;75.90;101269.20;126803;1095;104612;-85
2020/12/08 00:55:17;;;;;;;21.33;7.43;;;;;;;-2.39;76.43;101276.14;126821;1095;104554;-84
2020/12/08 00:57:48;;;;;;;19.70;6.70;;;;;;;-2.37;75.54;101276.30;126823;1094;104586;-86
2020/12/08 01:00:21;;;;;;;21.77;7.93;;;;;;;-2.42;75.56;101278.41;126819;1095;104437;-84
2020/12/08 01:02:50;;;;;;;29.90;8.30;;;;;;;-2.43;76.47;101276.61;126779;1095;104487;-87
2020/12/08 01:05:19;;;;;;;20.87;7.10;;;;;;;-2.38;75.78;101277.07;126801;1095;104640;-84
2020/12/08 01:07:51;;;;;;;27.30;8.17;;;;;;;-2.33;76.55;101268.14;126855;1095;104565;-85
2020/12/08 01:10:26;;;;;;;18.90;6.87;;;;;;;-2.35;75.05;101256.81;126815;1095;104602;-85
2020/12/08 01:12:55;;;;;;;27.37;7.70;;;;;;;-2.40;75.57;101270.84;126843;1095;104456;-87
2020/12/08 01:15:24;;;;;;;21.33;7.63;;;;;;;-2.42;75.67;101280.98;126792;1095;104849;-85
2020/12/08 01:17:54;;;;;;;24.00;7.70;;;;;;;-2.41;76.37;101281.91;126776;1096;104634;-84
2020/12/08 01:20:23;;;;;;;25.83;8.70;;;;;;;-2.38;75.96;101285.68;126833;1095;105016;-86
2020/12/08 01:25:58;;;;;;;21.12;7.58;;;;;;;-2.27;76.36;101283.28;126692;1098;104440;-86
2020/12/08 01:28:27;;;;;;;23.70;8.53;;;;;;;-2.26;75.21;101282.50;126859;1095;104426;-86
2020/12/08 01:30:57;;;;;;;24.03;8.33;;;;;;;-2.29;75.43;101262.56;126845;1095;104515;-84
2020/12/08 01:33:29;;;;;;;17.23;6.27;;;;;;;-2.27;76.16;101273.00;126798;1095;104443;-85
2020/12/08 01:35:58;;;;;;;22.20;7.97;;;;;;;-2.27;75.47;101262.72;126875;1095;104545;-85
2020/12/08 01:38:28;;;;;;;24.10;7.73;;;;;;;-2.25;75.26;101267.23;126856;1095;104442;-84
2020/12/08 01:40:57;;;;;;;19.67;7.17;;;;;;;-2.25;76.13;101261.19;126902;1095;104436;-84
2020/12/08 01:43:28;;;;;;;27.10;7.80;;;;;;;-2.36;76.19;101267.84;126915;1094;104570;-85
2020/12/08 01:45:57;;;;;;;21.87;8.37;;;;;;;-2.40;75.49;101260.56;126828;1095;104436;-87
2020/12/08 01:48:27;;;;;;;23.63;7.83;;;;;;;-2.40;76.37;101261.50;126884;1095;104430;-85
2020/12/08 01:50:56;;;;;;;19.20;6.70;;;;;;;-2.38;76.30;101256.51;126860;1095;104445;-87
2020/12/08 01:53:25;;;;;;;22.87;7.07;;;;;;;-2.39;75.66;101257.25;126860;1095;104503;-86
2020/12/08 01:55:54;;;;;;;21.43;7.50;;;;;;;-2.40;75.53;101261.50;126845;1095;104666;-83
2020/12/08 01:58:23;;;;;;;22.43;6.83;;;;;;;-2.39;75.50;101257.25;126811;1095;104455;-84
2020/12/08 02:00:56;;;;;;;21.07;6.83;;;;;;;-2.40;76.16;101242.58;126815;1095;104437;-84
2020/12/08 02:03:26;;;;;;;19.20;6.77;;;;;;;-2.46;75.66;101242.89;126904;1095;104560;-85
2020/12/08 02:05:56;;;;;;;22.97;7.53;;;;;;;-2.50;74.99;101242.44;126844;1095;104515;-86
2020/12/08 02:08:29;;;;;;;14.60;4.97;;;;;;;-2.58;75.50;101255.42;126934;1095;104490;-85
2020/12/08 02:11:00;;;;;;;24.27;9.07;;;;;;;-2.61;75.40;101244.83;126788;1095;104603;-84
2020/12/08 02:13:30;;;;;;;20.27;7.63;;;;;;;-2.63;76.26;101241.21;126831;1095;104494;-84
2020/12/08 02:16:00;;;;;;;20.10;6.47;;;;;;;-2.67;75.39;101246.78;126864;1095;104387;-84
2020/12/08 02:18:30;;;;;;;24.20;8.13;;;;;;;-2.71;75.82;101244.69;126843;1095;104453;-86
2020/12/08 02:21:01;;;;;;;21.50;7.53;;;;;;;-2.74;76.23;101242.70;126817;1095;104496;-87
2020/12/08 02:23:34;;;;;;;26.07;7.57;;;;;;;-2.73;75.78;101243.60;126835;1095;104430;-83
2020/12/08 02:26:05;;;;;;;25.13;7.27;;;;;;;-2.73;76.30;101239.39;126882;1095;104929;-83
2020/12/08 02:28:35;;;;;;;26.13;8.40;;;;;;;-2.66;76.45;101237.44;126943;1095;104429;-85
2020/12/08 02:31:06;;;;;;;17.47;6.03;;;;;;;-2.62;76.57;101231.83;126907;1095;104551;-86
2020/12/08 02:33:35;;;;;;;26.20;8.97;;;;;;;-2.63;76.41;101240.31;126799;1095;104442;-84
2020/12/08 02:36:06;;;;;;;16.70;5.90;;;;;;;-2.63;76.07;101246.35;126789;1095;104516;-86
2020/12/08 02:38:35;;;;;;;23.20;7.20;;;;;;;-2.64;75.38;101243.63;126857;1095;104471;-83
2020/12/08 02:41:04;;;;;;;22.70;8.70;;;;;;;-2.62;75.61;101244.68;126833;1095;104840;-86
2020/12/08 02:43:33;;;;;;;24.53;8.23;;;;;;;-2.59;76.63;101240.73;126862;1094;104462;-85
2020/12/08 02:46:04;;;;;;;14.20;5.40;;;;;;;-2.54;75.68;101231.85;126824;1095;104453;-84
2020/12/08 02:48:33;;;;;;;22.43;8.03;;;;;;;-2.54;76.62;101223.21;126862;1095;104542;-85
2020/12/08 02:51:06;;;;;;;;;;;;;;;-2.49;76.50;101228.81;126878;1094;104563;-87
2020/12/08 02:53:36;;;;;;;20.50;5.60;;;;;;;-2.46;76.38;101226.55;126857;1095;104467;-84
2020/12/08 02:56:06;;;;;;;22.53;8.03;;;;;;;-2.49;76.06;101229.73;126893;1095;104558;-85
2020/12/08 02:58:35;;;;;;;22.43;7.30;;;;;;;-2.45;76.45;101241.22;126852;1095;103132;-86
2020/12/08 03:01:04;;;;;;;21.03;6.40;;;;;;;-2.40;76.37;101245.14;126846;1095;104481;-87
2020/12/08 03:03:36;;;;;;;22.75;7.45;;;;;;;-2.45;76.49;101254.07;126908;1094;104518;-84
2020/12/08 03:06:05;;;;;;;22.13;8.10;;;;;;;-2.48;76.32;101249.52;126819;1095;104452;-85
2020/12/08 03:08:34;;;;;;;21.60;7.60;;;;;;;-2.51;76.20;101253.46;126866;1094;104596;-85
2020/12/08 03:11:03;;;;;;;17.67;5.53;;;;;;;-2.53;76.53;101240.45;126911;1095;104576;-85
2020/12/08 03:13:32;;;;;;;23.10;8.53;;;;;;;-2.62;75.49;101235.30;126794;1094;104532;-86
2020/12/08 03:16:01;;;;;;;21.63;6.37;;;;;;;-2.67;75.61;101228.80;126852;1095;104443;-85
2020/12/08 03:18:31;;;;;;;21.00;7.27;;;;;;;-2.69;76.44;101227.75;126830;1094;104833;-86
2020/12/08 03:21:00;;;;;;;23.13;6.80;;;;;;;-2.69;76.74;101220.05;126893;1094;104433;-88
2020/12/08 03:23:29;;;;;;;19.33;6.47;;;;;;;-2.77;76.48;101221.84;126844;1094;104580;-86
2020/12/08 03:25:58;;;;;;;17.80;5.57;;;;;;;-2.78;76.85;101224.27;126815;1095;104882;-83
2020/12/08 03:28:27;;;;;;;19.83;7.07;;;;;;;-2.80;77.32;101226.67;126817;1095;104449;-84
2020/12/08 03:30:56;;;;;;;21.67;7.70;;;;;;;-2.81;76.66;101226.52;126850;1095;104643;-86
2020/12/08 03:33:28;;;;;;;26.37;8.33;;;;;;;-2.80;77.52;101234.38;126855;1095;104573;-85
2020/12/08 03:35:57;;;;;;;18.87;6.67;;;;;;;-2.77;77.06;101233.80;126842;1095;104564;-84
2020/12/08 03:38:26;;;;;;;22.97;8.63;;;;;;;-2.75;76.91;101237.41;126788;1095;104936;-86
2020/12/08 03:40:57;;;;;;;25.87;8.33;;;;;;;-2.69;77.40;101253.44;126821;1095;104439;-87
2020/12/08 03:43:30;;;;;;;26.57;8.50;;;;;;;-2.69;77.23;101260.26;126855;1095;104389;-84
2020/12/08 03:45:59;;;;;;;21.57;6.73;;;;;;;-2.72;76.85;101263.41;126830;1095;104446;-84
2020/12/08 03:48:29;;;;;;;21.60;7.07;;;;;;;-2.75;76.24;101260.53;126828;1095;104433;-84
2020/12/08 03:50:58;;;;;;;23.40;6.73;;;;;;;-2.74;77.06;101264.93;126767;1096;104510;-85
2020/12/08 03:53:28;;;;;;;23.30;7.10;;;;;;;-2.77;76.63;101262.95;126837;1095;104438;-84
2020/12/08 03:56:00;;;;;;;26.10;8.13;;;;;;;-2.79;77.09;101272.17;126866;1095;104496;-84
2020/12/08 03:58:31;;;;;;;24.50;8.50;;;;;;;-2.84;76.24;101275.91;126805;1095;104945;-86
2020/12/08 04:01:00;;;;;;;21.23;6.70;;;;;;;-2.84;77.22;101269.88;126897;1095;104507;-86
2020/12/08 04:03:29;;;;;;;22.30;6.40;;;;;;;-2.82;77.08;101269.30;126771;1096;104505;-86
2020/12/08 04:06:02;;;;;;;29.30;9.63;;;;;;;-2.79;77.20;101264.47;126815;1095;103154;-85
2020/12/08 04:08:31;;;;;;;29.05;9.00;;;;;;;-2.77;76.81;101256.91;126846;1095;104466;-87
2020/12/08 04:11:00;;;;;;;25.73;7.43;;;;;;;-2.75;77.09;101273.38;126890;1095;104437;-85
2020/12/08 04:13:30;;;;;;;25.97;8.97;;;;;;;-2.79;76.57;101274.74;126854;1095;104605;-86
2020/12/08 04:15:59;;;;;;;26.10;8.17;;;;;;;-2.77;77.28;101262.05;126821;1094;104440;-84
2020/12/08 04:18:28;;;;;;;24.93;8.60;;;;;;;-2.78;77.01;101261.13;126845;1095;104465;-83
2020/12/08 04:20:58;;;;;;;21.37;8.10;;;;;;;-2.77;77.95;101254.34;126815;1095;104453;-84
2020/12/08 04:23:27;;;;;;;23.33;8.17;;;;;;;-2.81;77.34;101258.24;126855;1095;104432;-83
2020/12/08 04:25:55;;;;;;;31.45;8.70;;;;;;;-2.84;77.89;101251.90;126822;1095;104756;-86
2020/12/08 04:28:27;;;;;;;20.40;6.13;;;;;;;-2.81;77.29;101262.48;126815;1094;104853;-81
2020/12/08 04:31:00;;;;;;;24.13;8.73;;;;;;;-2.80;77.27;101260.07;127096;1094;104446;-85
2020/12/08 04:33:45;;;;;;;26.10;7.33;;;;;;;-2.84;77.23;101259.61;126964;1094;104452;-85
2020/12/08 04:36:16;;;;;;;25.07;8.30;;;;;;;-2.92;77.49;101262.30;126764;1095;104456;-86
2020/12/08 04:38:46;;;;;;;16.37;5.83;;;;;;;-2.95;77.79;101264.55;126841;1095;104583;-83
2020/12/08 04:41:20;;;;;;;21.07;6.43;;;;;;;-3.00;76.77;101258.05;126824;1094;104432;-87
2020/12/08 04:43:53;;;;;;;20.57;7.63;;;;;;;-3.00;77.77;101258.05;126877;1095;104455;-88
2020/12/08 04:46:24;;;;;;;23.17;6.20;;;;;;;-3.00;77.53;101252.02;126858;1095;104496;-82
2020/12/08 04:48:54;;;;;;;23.87;7.63;;;;;;;-3.08;77.46;101248.67;126842;1094;103144;-85
2020/12/08 04:51:23;;;;;;;21.87;6.50;;;;;;;-3.12;76.80;101255.13;126837;1095;105134;-82
2020/12/08 04:53:54;;;;;;;25.15;8.15;;;;;;;-3.13;77.90;101265.23;126967;1095;104491;-84
2020/12/08 04:56:26;;;;;;;21.57;7.33;;;;;;;-3.18;77.11;101276.70;126866;1094;104574;-82
2020/12/08 04:58:55;;;;;;;23.20;6.70;;;;;;;-3.25;77.06;101270.05;126860;1095;104560;-82
2020/12/08 05:01:27;;;;;;;19.93;6.70;;;;;;;-3.24;77.73;101277.01;126873;1094;104433;-82
2020/12/08 05:04:00;;;;;;;22.33;7.33;;;;;;;-3.20;78.21;101280.79;126860;1094;104538;-85
2020/12/08 05:06:30;;;;;;;21.37;7.13;;;;;;;-3.19;77.31;101280.05;127295;1092;104436;-86
2020/12/08 05:09:05;;;;;;;20.00;7.20;;;;;;;-3.18;77.31;101275.07;127307;1092;104448;-85
2020/12/08 05:11:37;;;;;;;19.37;6.50;;;;;;;-3.16;77.33;101270.99;127337;1092;104494;-84
2020/12/08 05:14:07;;;;;;;21.77;8.53;;;;;;;-3.15;77.79;101271.89;127370;1092;104449;-84
2020/12/08 05:16:36;;;;;;;22.87;8.53;;;;;;;-3.10;76.94;101262.98;127339;1092;104616;-85
2020/12/08 05:19:09;;;;;;;20.60;8.40;;;;;;;-3.06;77.12;101267.70;127277;1092;104491;-83
2020/12/08 05:21:48;;;;;;;25.80;8.33;;;;;;;-3.09;76.91;101281.12;127262;1092;104494;-84
2020/12/08 05:24:37;;;;;;;21.00;6.37;;;;;;;-3.14;77.42;101284.88;127318;1092;104497;-85
2020/12/08 05:27:07;;;;;;;23.87;7.40;;;;;;;-3.21;77.68;101292.73;127316;1092;104484;-83
2020/12/08 05:29:37;;;;;;;20.53;6.93;;;;;;;-3.24;77.05;101294.98;127311;1092;104619;-83
2020/12/08 05:32:25;;;;;;;22.77;7.97;;;;;;;-3.23;77.01;101294.20;127423;1091;104461;-84
2020/12/08 05:34:55;;;;;;;23.27;7.30;;;;;;;-3.23;77.67;101283.04;127356;1093;104901;-84
2020/12/08 05:37:24;;;;;;;20.17;7.47;;;;;;;-3.22;77.72;101287.44;127357;1092;104493;-82
2020/12/08 05:39:53;;;;;;;21.33;7.50;;;;;;;-3.19;77.31;101295.45;127342;1093;104436;-84
2020/12/08 05:42:22;;;;;;;23.07;7.50;;;;;;;-3.16;76.85;101296.66;127362;1092;104847;-90
2020/12/08 05:44:52;;;;;;;21.63;7.60;;;;;;;-3.19;77.72;101295.45;127255;1092;104519;-83
2020/12/08 05:47:23;;;;;;;24.93;8.27;;;;;;;-3.24;76.67;101277.01;127287;1092;104465;-81
2020/12/08 05:50:00;;;;;;;19.97;7.03;;;;;;;-3.25;77.09;101263.24;127272;1091;103808;-82
2020/12/08 05:52:32;;;;;;;21.07;7.00;;;;;;;-3.27;77.95;101297.23;127323;1092;104494;-82
2020/12/08 05:55:16;;;;;;;22.93;8.67;;;;;;;-3.31;77.32;101288.28;127275;1092;104449;-83
2020/12/08 05:57:47;;;;;;;20.90;6.62;;;;;;;-3.29;76.94;101281.67;127293;1092;104459;-84
2020/12/08 06:00:29;;;;;;;24.93;7.80;;;;;;;-3.30;76.90;101279.84;127295;1092;104496;-86
2020/12/08 06:03:09;;;;;;;25.67;8.83;;;;;;;-3.31;76.72;101266.84;127245;1092;104545;-85
2020/12/08 06:05:42;;;;;;;20.87;7.10;;;;;;;-3.35;77.76;101277.53;127331;1093;104449;-81
2020/12/08 06:08:17;;;;;;;23.03;8.70;;;;;;;-3.41;77.83;101271.77;127244;1092;104436;-87
2020/12/08 06:10:51;;;;;;;22.37;7.33;;;;;;;-3.42;77.58;101265.73;127203;1092;104480;-83
2020/12/08 06:13:30;;;;;;;22.67;7.70;;;;;;;-3.49;76.86;101268.41;127302;1092;104453;-83
2020/12/08 06:16:02;;;;;;;16.73;6.43;;;;;;;-3.47;78.21;101269.50;127259;1092;104446;-82
2020/12/08 06:18:33;;;;;;;22.70;6.80;;;;;;;-3.55;77.30;101258.44;127364;1092;104427;-79
2020/12/08 06:21:04;;;;;;;22.63;8.10;;;;;;;-3.54;77.79;101272.16;127354;1092;104443;-79
2020/12/08 06:23:33;;;;;;;20.00;6.80;;;;;;;-3.51;77.36;101265.69;127327;1091;104445;-78
2020/12/08 06:26:04;;;;;;;18.70;6.93;;;;;;;-3.46;77.47;101258.46;127339;1092;104430;-83
2020/12/08 06:28:33;;;;;;;18.77;5.90;;;;;;;-3.42;77.45;101268.31;127334;1092;104493;-81
2020/12/08 06:31:04;;;;;;;24.80;8.77;;;;;;;-3.38;78.07;101266.95;127387;1091;104430;-78
2020/12/08 06:33:47;;;;;;;19.93;7.83;;;;;;;-3.31;77.31;101269.41;127368;1092;104567;-84
2020/12/08 06:36:17;;;;;;;22.07;8.10;;;;;;;-3.30;76.88;101264.44;127254;1092;104491;-81
2020/12/08 06:38:57;;;;;;;22.10;6.97;;;;;;;-3.27;76.90;101271.56;127258;1093;104577;-80
2020/12/08 06:41:34;;;;;;;21.97;8.40;;;;;;;-3.26;77.31;101274.28;127286;1091;104500;-79
2020/12/08 06:44:12;;;;;;;21.40;6.97;;;;;;;-3.29;77.60;101263.70;127328;1092;104437;-79
2020/12/08 06:46:52;;;;;;;22.20;7.27;;;;;;;-3.28;77.46;101265.49;127225;1092;104653;-78
2020/12/08 06:49:21;;;;;;;18.33;6.30;;;;;;;-3.31;77.59;101257.48;127229;1092;104560;-83
2020/12/08 06:59:22;;;;;;;16.80;5.97;;;;;;;-3.25;77.80;101276.08;126795;1096;104490;-82
2020/12/08 07:02:01;;;;;;;23.07;7.97;;;;;;;-3.27;77.48;101276.69;126809;1096;104440;-81
2020/12/08 07:04:32;;;;;;;21.07;7.33;;;;;;;-3.25;77.84;101277.75;126756;1096;104450;-81
2020/12/08 07:07:04;;;;;;;21.93;7.40;;;;;;;-3.21;77.25;101276.39;126765;1096;105037;-81
2020/12/08 07:09:34;;;;;;;20.53;6.33;;;;;;;-3.25;77.51;101281.21;126785;1095;104619;-80
2020/12/08 07:12:04;;;;;;;26.03;9.10;;;;;;;-3.26;77.08;101278.48;126863;1095;104651;-79
2020/12/08 07:14:36;;;;;;;17.57;5.70;;;;;;;-3.26;78.30;101281.98;126874;1095;104474;-82
2020/12/08 07:17:07;;;;;;;19.17;7.33;;;;;;;-3.27;77.77;101281.83;126866;1095;104589;-81
2020/12/08 07:19:40;;;;;;;20.87;6.90;;;;;;;-3.27;77.87;101279.27;126824;1095;104487;-85
2020/12/08 07:22:27;;;;;;;28.97;7.13;;;;;;;-3.26;77.95;101281.05;126811;1095;104442;-82
2020/12/08 07:25:10;;;;;;;18.87;6.50;;;;;;;-3.35;77.64;101301.56;126908;1094;104445;-87
2020/12/08 07:27:46;;;;;;;19.92;6.60;;;;;;;-3.39;77.32;101301.98;126874;1093;105057;-84
2020/12/08 07:30:21;;;;;;;27.07;8.73;;;;;;;-3.34;77.24;101290.53;127284;1092;104510;-83
2020/12/08 07:32:51;;;;;;;25.17;8.03;;;;;;;-3.26;78.33;101301.59;127336;1092;104491;-83
2020/12/08 07:35:24;;;;;;;23.57;7.93;;;;;;;-3.22;77.73;101296.03;127290;1093;104570;-85
2020/12/08 07:44:58;;;;;;;23.37;6.70;;;;;;;-3.28;77.59;101285.13;126785;1095;104609;-80
2020/12/08 07:47:28;;;;;;;19.00;6.90;;;;;;;-3.29;77.49;101285.88;126843;1095;104711;-81
2020/12/08 07:49:57;;;;;;;21.10;7.30;;;;;;;-3.32;77.62;101293.25;126773;1095;104497;-79
2020/12/08 07:52:27;;;;;;;20.90;7.17;;;;;;;-3.34;78.20;101299.90;126772;1096;104445;-80
2020/12/08 07:54:59;;;;;;;18.10;6.30;;;;;;;-3.32;78.69;101299.31;126776;1095;104434;-81
2020/12/08 07:57:38;;;;;;;19.70;7.20;;;;;;;-3.30;77.59;101289.21;126744;1095;105025;-82
2020/12/08 08:00:18;;;;;;;17.07;5.53;;;;;;;-3.25;78.36;101286.34;126818;1095;104438;-80
2020/12/08 08:02:47;;;;;;;17.03;6.27;;;;;;;-3.24;77.96;101287.28;126771;1095;105035;-81
2020/12/08 08:05:28;;;;;;;20.57;8.00;;;;;;;-3.25;77.94;101286.34;126776;1095;102908;-83
2020/12/08 08:07:57;;;;;;;18.10;6.93;;;;;;;-3.18;77.99;101282.77;126813;1095;103142;-82
2020/12/08 08:10:29;;;;;;;18.97;6.87;;;;;;;-3.09;77.84;101282.79;126751;1095;104571;-80
2020/12/08 08:12:59;;;;;;;21.80;8.10;;;;;;;-3.02;77.80;101290.38;126790;1095;104499;-80
2020/12/08 08:15:34;;;;;;;27.13;7.67;;;;;;;-2.97;77.19;101293.42;126858;1095;104497;-81
2020/12/08 08:18:15;;;;;;;24.83;7.33;;;;;;;-2.99;78.02;101310.31;126929;1092;104612;-82
2020/12/08 08:20:49;;;;;;;24.77;7.60;;;;;;;-2.97;77.67;101314.86;127263;1092;104430;-81
2020/12/08 08:23:18;;;;;;;20.63;7.47;;;;;;;-2.91;77.56;101309.45;127313;1092;104630;-80
2020/12/08 08:25:52;;;;;;;22.93;8.67;;;;;;;-2.90;76.92;101301.91;127336;1092;104678;-81
2020/12/08 08:28:21;;;;;;;24.20;8.40;;;;;;;-2.91;76.85;101294.05;127273;1092;104426;-79
2020/12/08 08:30:53;;;;;;;18.33;7.03;;;;;;;-2.88;78.05;101289.22;127340;1092;104614;-79
2020/12/08 08:33:25;;;;;;;24.03;8.13;;;;;;;-2.89;77.88;101303.70;127298;1092;104549;-77
2020/12/08 08:35:55;;;;;;;23.23;8.87;;;;;;;-2.84;77.44;101295.56;127303;1092;104590;-83
2020/12/08 08:38:26;;;;;;;18.07;6.53;;;;;;;-2.79;77.28;101291.79;127249;1092;104577;-82
2020/12/08 08:41:00;;;;;;;22.27;8.00;;;;;;;-2.77;78.14;101298.02;127241;1092;103232;-84
2020/12/08 08:43:40;;;;;;;22.77;7.78;;;;;;;-2.74;77.82;101300.90;127278;1092;104494;-83
2020/12/08 08:46:14;;;;;;;22.57;7.83;;;;;;;-2.71;78.08;101301.20;127248;1092;104584;-89
2020/12/08 08:48:52;;;;;;;17.83;5.90;;;;;;;-2.76;76.63;101294.67;127204;1092;104232;-79
2020/12/08 08:51:21;;;;;;;16.07;6.03;;;;;;;-2.83;77.84;101297.39;127261;1092;104497;-79
2020/12/08 08:53:50;;;;;;;18.87;6.43;;;;;;;-2.83;77.17;101294.83;127352;1092;104442;-82
2020/12/08 08:56:20;;;;;;;20.17;6.97;;;;;;;-2.85;77.88;101294.67;127334;1092;104432;-81
2020/12/08 08:58:56;;;;;;;17.70;6.20;;;;;;;-2.83;78.05;101292.25;127234;1092;104436;-79
2020/12/08 09:01:28;;;;;;;17.40;5.67;;;;;;;-2.81;78.04;101285.60;127190;1093;104490;-80
2020/12/08 09:03:58;;;;;;;21.17;6.97;;;;;;;-2.78;78.13;101286.81;127278;1092;104449;-82
2020/12/08 09:06:30;;;;;;;18.97;6.93;;;;;;;-2.82;77.55;101296.62;127297;1092;104458;-80
2020/12/08 09:09:34;;;;;;;24.27;6.97;;;;;;;-2.90;77.18;101299.34;127293;1092;104445;-81
2020/12/08 09:12:17;;;;;;;23.07;8.07;;;;;;;-2.91;77.97;101288.91;127268;1092;104582;-80
2020/12/08 09:15:11;;;;;;;19.00;6.57;;;;;;;-2.89;77.44;101297.66;127206;1092;103992;-82
2020/12/08 09:17:46;;;;;;;16.63;6.20;;;;;;;-2.85;77.21;101297.23;127244;1092;104445;-82
2020/12/08 09:20:23;;;;;;;21.83;7.70;;;;;;;-2.81;77.61;101290.73;127281;1092;104580;-80
2020/12/08 09:22:53;;;;;;;20.57;6.47;;;;;;;-2.74;77.17;101295.76;127275;1092;104465;-82
2020/12/08 09:25:27;;;;;;;20.10;7.23;;;;;;;-2.68;77.80;101296.38;127196;1092;105192;-82
2020/12/08 09:27:57;;;;;;;;;;;;;;;-2.64;78.26;101288.20;127271;1092;105173;-81
2020/12/08 09:30:27;;;;;;;19.03;7.07;;;;;;;-2.61;78.03;101293.66;127279;1092;104408;-82
2020/12/08 09:33:01;;;;;;;15.47;6.07;;;;;;;-2.59;76.73;101284.42;127355;1092;104494;-82
2020/12/08 09:35:38;;;;;;;20.53;7.10;;;;;;;-2.59;77.29;101289.56;127268;1092;104443;-83
2020/12/08 09:38:15;;;;;;;20.07;7.00;;;;;;;-2.54;77.01;101278.11;127311;1092;104895;-87
2020/12/08 09:41:07;;;;;;;18.80;7.67;;;;;;;-2.47;78.06;101289.00;127341;1092;104584;-80
2020/12/08 09:43:37;;;;;;;20.80;6.27;;;;;;;-2.41;77.89;101285.38;127282;1092;104442;-83
2020/12/08 09:46:06;;;;;;;20.67;7.07;;;;;;;-2.44;77.03;101282.50;127299;1092;104564;-81
2020/12/08 09:48:43;;;;;;;19.57;5.70;;;;;;;-2.40;76.71;101288.84;127271;1092;104491;-80
2020/12/08 09:51:13;;;;;;;23.32;7.87;;;;;;;-2.44;76.66;101281.59;127342;1091;104856;-80
2020/12/08 09:53:48;;;;;;;18.20;7.20;;;;;;;-2.43;76.69;101280.83;127233;1092;104571;-80
2020/12/08 09:56:27;;;;;;;16.53;5.70;;;;;;;-2.44;77.28;101269.64;127340;1092;104561;-82
2020/12/08 09:58:57;;;;;;;19.13;6.37;;;;;;;-2.45;77.03;101272.96;127305;1092;104459;-82
2020/12/08 10:01:47;;;;;;;19.30;7.30;;;;;;;-2.42;76.99;101272.37;127296;1092;104488;-80
2020/12/08 10:04:16;;;;;;;21.03;7.43;;;;;;;-2.38;77.62;101279.64;127360;1092;104434;-79
2020/12/08 10:06:58;;;;;;;16.73;6.00;;;;;;;-2.35;77.04;101273.13;127336;1092;104542;-79
2020/12/08 10:09:32;;;;;;;22.13;7.60;;;;;;;-2.34;77.57;101271.45;127263;1093;104366;-81
2020/12/08 10:12:01;;;;;;;20.93;6.77;;;;;;;-2.30;77.41;101273.59;127251;1091;104885;-80
2020/12/08 10:14:37;;;;;;;22.90;7.27;;;;;;;-2.26;76.71;101273.15;127395;1091;104497;-81
2020/12/08 10:17:08;;;;;;;15.10;6.13;;;;;;;-2.25;76.58;101266.33;127267;1093;105326;-81
2020/12/08 10:19:57;;;;;;;24.33;9.30;;;;;;;-2.25;77.46;101264.66;127262;1092;104436;-79
2020/12/08 10:22:26;;;;;;;17.97;6.77;;;;;;;-2.22;77.39;101256.35;127340;1092;104519;-79
2020/12/08 10:24:55;;;;;;;17.67;6.87;;;;;;;-2.20;76.72;101254.83;127293;1091;104493;-81
2020/12/08 10:27:25;;;;;;;19.53;6.97;;;;;;;-2.23;75.94;101257.09;127279;1092;103229;-81
2020/12/08 10:29:55;;;;;;;18.63;6.43;;;;;;;-2.25;77.39;101262.09;127281;1093;104433;-79
2020/12/08 10:32:33;;;;;;;19.57;6.27;;;;;;;-2.21;76.57;101264.22;127250;1092;104315;-79
2020/12/08 10:35:07;;;;;;;21.93;7.43;;;;;;;-2.18;76.55;101264.52;127198;1092;103205;-82
2020/12/08 10:37:41;;;;;;;21.17;7.20;;;;;;;-2.12;76.54;101255.58;127240;1093;104439;-80
2020/12/08 10:40:14;;;;;;;20.33;7.40;;;;;;;-2.06;76.57;101258.76;127268;1092;103844;-78
2020/12/08 10:42:45;;;;;;;17.75;6.00;;;;;;;-2.07;77.09;101252.72;127337;1092;104465;-80
2020/12/08 10:45:15;;;;;;;17.03;6.37;;;;;;;-2.15;76.20;101253.64;127216;1092;104440;-81
2020/12/08 10:47:45;;;;;;;17.90;6.30;;;;;;;-2.23;76.15;101252.88;127243;1092;104520;-82
2020/12/08 10:50:14;;;;;;;17.83;5.87;;;;;;;-2.30;76.09;101249.55;127217;1092;104580;-79
2020/12/08 10:52:46;;;;;;;16.43;5.43;;;;;;;-2.35;76.25;101260.28;127271;1092;104497;-80
2020/12/08 10:55:18;;;;;;;19.87;7.27;;;;;;;-2.35;76.42;101254.24;127270;1092;103170;-77
2020/12/08 10:57:48;;;;;;;19.43;6.87;;;;;;;-2.35;77.53;101254.24;127359;1092;104474;-78
2020/12/08 11:00:40;;;;;;;16.27;5.57;;;;;;;-2.31;77.15;101255.44;127252;1092;104433;-79
2020/12/08 11:03:13;;;;;;;18.30;5.93;;;;;;;-2.34;77.33;101248.33;127309;1092;104513;-77
2020/12/08 11:05:43;;;;;;;18.30;7.00;;;;;;;-2.37;77.10;101256.66;127377;1092;104430;-80
2020/12/08 11:08:26;;;;;;;17.53;6.83;;;;;;;-2.33;76.53;101249.25;127309;1093;104436;-82
2020/12/08 11:10:56;;;;;;;22.30;7.93;;;;;;;-2.28;77.23;101250.61;127203;1093;104485;-81
2020/12/08 11:13:25;;;;;;;22.93;8.47;;;;;;;-2.25;76.93;101248.34;127248;1091;103130;-80
2020/12/08 11:15:54;;;;;;;18.87;6.67;;;;;;;-2.25;76.60;101244.09;127365;1092;104469;-79
2020/12/08 11:18:24;;;;;;;16.87;6.47;;;;;;;-2.24;77.51;101242.45;127314;1092;104562;-78
2020/12/08 11:20:53;;;;;;;22.03;7.83;;;;;;;-2.25;77.10;101246.66;127347;1092;104429;-78
2020/12/08 11:23:22;;;;;;;19.30;7.00;;;;;;;-2.24;77.70;101248.48;127255;1091;104535;-80
2020/12/08 11:26:28;;;;;;;25.00;8.80;;;;;;;-2.19;77.43;101247.27;127343;1091;104455;-79
2020/12/08 11:29:37;;;;;;;20.73;7.47;;;;;;;-2.12;76.65;101240.16;127357;1091;104503;-81
2020/12/08 11:32:18;;;;;;;20.90;7.17;;;;;;;-2.08;76.58;101243.17;127064;1094;104455;-81
2020/12/08 11:34:50;;;;;;;16.47;6.23;;;;;;;-2.04;77.52;101237.59;127215;1092;104443;-83
2020/12/08 11:37:21;;;;;;;;;;;;;;;-2.02;76.85;101237.73;127255;1092;104894;-82
2020/12/08 11:39:57;;;;;;;16.60;5.90;;;;;;;-2.09;76.32;101238.78;127249;1092;104492;-81
2020/12/08 11:42:25;;;;;;;;;;;;;;;-2.10;77.39;101238.62;127271;1093;104474;-81